createdAt,value
2022-12-25T00:00:59.143Z,0.00
2022-12-25T00:01:59.080Z,0.00
2022-12-25T00:02:59.187Z,0.00
2022-12-25T00:03:59.146Z,0.00
2022-12-25T00:04:59.096Z,0.00
2022-12-25T00:05:59.008Z,0.00
2022-12-25T00:06:59.008Z,0.00
2022-12-25T00:07:59.010Z,0.00
2022-12-25T00:08:59.013Z,0.00
2022-12-25T00:09:58.989Z,0.00
2022-12-25T00:10:59.053Z,0.00
2022-12-25T00:11:58.947Z,0.00
2022-12-25T00:12:58.962Z,0.00
2022-12-25T00:13:58.921Z,0.00
2022-12-25T00:14:58.920Z,0.00
2022-12-25T00:15:58.980Z,0.00
2022-12-25T00:16:58.944Z,0.00
2022-12-25T00:17:58.859Z,0.00
2022-12-25T00:18:59.228Z,0.00
2022-12-25T00:19:58.849Z,0.00
2022-12-25T00:20:59.534Z,0.00
2022-12-25T00:21:58.816Z,0.00
2022-12-25T00:22:58.844Z,0.00
2022-12-25T00:23:58.802Z,0.00
2022-12-25T00:24:58.792Z,0.00
2022-12-25T00:25:58.803Z,0.00
2022-12-25T00:26:58.763Z,0.00
2022-12-25T00:27:58.764Z,0.00
2022-12-25T00:28:58.803Z,0.00
2022-12-25T00:29:58.728Z,0.00
2022-12-25T00:30:58.792Z,0.00
2022-12-25T00:31:58.718Z,0.00
2022-12-25T00:32:59.007Z,0.00
2022-12-25T00:33:58.688Z,0.00
2022-12-25T00:34:58.785Z,0.00
2022-12-25T00:35:58.667Z,0.00
2022-12-25T00:36:58.659Z,0.00
2022-12-25T00:37:59.137Z,0.00
2022-12-25T00:38:58.614Z,0.00
2022-12-25T00:39:58.600Z,0.00
2022-12-25T00:40:58.627Z,0.00
2022-12-25T00:41:58.567Z,0.00
2022-12-25T00:42:58.558Z,0.00
2022-12-25T00:43:58.560Z,0.00
2022-12-25T00:44:58.537Z,0.00
2022-12-25T00:45:58.853Z,0.00
2022-12-25T00:46:58.604Z,0.00
2022-12-25T00:47:58.492Z,0.00
2022-12-25T00:48:58.763Z,0.00
2022-12-25T00:49:58.485Z,0.00
2022-12-25T00:50:58.459Z,0.00
2022-12-25T00:51:58.450Z,0.00
2022-12-25T00:52:58.481Z,0.00
2022-12-25T00:53:58.420Z,0.00
2022-12-25T00:54:58.434Z,0.00
2022-12-25T00:55:58.670Z,0.00
2022-12-25T00:56:58.405Z,0.00
2022-12-25T00:57:58.379Z,0.00
2022-12-25T00:58:58.431Z,0.00
2022-12-25T00:59:58.344Z,0.00
2022-12-25T01:00:58.389Z,0.00
2022-12-25T01:01:58.709Z,0.00
2022-12-25T01:02:58.378Z,0.00
2022-12-25T01:03:58.292Z,0.00
2022-12-25T01:05:02.313Z,0.00
2022-12-25T01:05:59.053Z,0.00
2022-12-25T01:06:58.319Z,0.00
2022-12-25T01:07:58.243Z,0.00
2022-12-25T01:08:58.244Z,0.00
2022-12-25T01:09:59.444Z,0.00
2022-12-25T01:10:58.284Z,0.00
2022-12-25T01:11:58.509Z,0.00
2022-12-25T01:12:58.188Z,0.00
2022-12-25T01:13:58.473Z,0.00
2022-12-25T01:14:58.170Z,0.00
2022-12-25T01:15:58.198Z,0.00
2022-12-25T01:16:58.282Z,0.00
2022-12-25T01:17:58.122Z,0.00
2022-12-25T01:18:58.126Z,0.00
2022-12-25T01:19:58.109Z,0.00
2022-12-25T01:20:58.109Z,0.00
2022-12-25T01:21:58.348Z,0.00
2022-12-25T01:22:58.171Z,0.00
2022-12-25T01:23:58.386Z,0.00
2022-12-25T01:24:58.782Z,0.00
2022-12-25T01:25:58.326Z,0.00
2022-12-25T01:26:58.022Z,0.00
2022-12-25T01:27:58.020Z,0.00
2022-12-25T01:28:58.035Z,0.00
2022-12-25T01:29:57.981Z,0.00
2022-12-25T01:30:57.964Z,0.00
2022-12-25T01:31:57.970Z,0.00
2022-12-25T01:32:57.947Z,0.00
2022-12-25T01:33:57.969Z,0.00
2022-12-25T01:34:58.630Z,0.00
2022-12-25T01:35:57.900Z,0.00
2022-12-25T01:36:57.909Z,0.00
2022-12-25T01:37:58.231Z,0.00
2022-12-25T01:38:58.715Z,0.00
2022-12-25T01:39:57.848Z,0.00
2022-12-25T01:40:57.941Z,0.00
2022-12-25T01:41:57.848Z,0.00
2022-12-25T01:42:57.813Z,0.00
2022-12-25T01:43:57.807Z,0.00
2022-12-25T01:44:57.799Z,0.00
2022-12-25T01:45:57.846Z,0.00
2022-12-25T01:46:57.813Z,0.00
2022-12-25T01:47:57.750Z,0.00
2022-12-25T01:48:57.743Z,0.00
2022-12-25T01:49:57.764Z,0.00
2022-12-25T01:50:58.486Z,0.00
2022-12-25T01:51:57.711Z,0.00
2022-12-25T01:52:57.738Z,0.00
2022-12-25T01:53:57.976Z,0.00
2022-12-25T01:54:57.666Z,0.00
2022-12-25T01:55:58.346Z,0.00
2022-12-25T01:56:57.636Z,0.00
2022-12-25T01:57:57.989Z,0.00
2022-12-25T01:58:58.560Z,0.00
2022-12-25T01:59:57.897Z,0.00
2022-12-25T02:00:57.618Z,0.00
2022-12-25T02:01:57.809Z,0.00
2022-12-25T02:02:57.814Z,0.00
2022-12-25T02:03:57.569Z,0.00
2022-12-25T02:04:57.588Z,0.00
2022-12-25T02:05:57.539Z,0.00
2022-12-25T02:06:57.512Z,0.00
2022-12-25T02:07:57.522Z,0.00
2022-12-25T02:08:57.497Z,0.00
2022-12-25T02:09:57.508Z,0.00
2022-12-25T02:10:57.574Z,0.00
2022-12-25T02:11:57.465Z,0.00
2022-12-25T02:12:57.731Z,0.00
2022-12-25T02:13:57.441Z,0.00
2022-12-25T02:15:04.661Z,0.00
2022-12-25T02:15:58.800Z,0.00
2022-12-25T02:16:58.949Z,0.00
2022-12-25T02:17:57.400Z,0.00
2022-12-25T02:18:57.362Z,0.00
2022-12-25T02:19:57.772Z,0.00
2022-12-25T02:20:57.374Z,0.00
2022-12-25T02:21:57.374Z,0.00
2022-12-25T02:22:57.312Z,0.00
2022-12-25T02:23:57.348Z,0.00
2022-12-25T02:24:57.293Z,0.00
2022-12-25T02:25:57.293Z,0.00
2022-12-25T02:26:57.290Z,0.00
2022-12-25T02:27:57.364Z,0.00
2022-12-25T02:28:57.543Z,0.00
2022-12-25T02:29:57.253Z,0.00
2022-12-25T02:30:57.241Z,0.00
2022-12-25T02:31:57.254Z,0.00
2022-12-25T02:32:57.207Z,0.00
2022-12-25T02:33:57.302Z,0.00
2022-12-25T02:34:57.190Z,0.00
2022-12-25T02:35:57.718Z,0.00
2022-12-25T02:36:57.908Z,0.00
2022-12-25T02:37:57.156Z,0.00
2022-12-25T02:39:00.969Z,0.00
2022-12-25T02:40:01.382Z,0.00
2022-12-25T02:40:57.101Z,0.00
2022-12-25T02:41:57.095Z,0.00
2022-12-25T02:42:57.080Z,0.00
2022-12-25T02:43:57.084Z,0.00
2022-12-25T02:44:57.067Z,0.00
2022-12-25T02:45:57.119Z,0.00
2022-12-25T02:46:57.030Z,0.00
2022-12-25T02:47:57.060Z,0.00
2022-12-25T02:48:57.023Z,0.00
2022-12-25T02:49:57.006Z,0.00
2022-12-25T02:50:59.818Z,0.00
2022-12-25T02:51:57.013Z,0.00
2022-12-25T02:52:56.955Z,0.00
2022-12-25T02:53:56.964Z,0.00
2022-12-25T02:54:57.751Z,0.00
2022-12-25T02:55:57.062Z,0.00
2022-12-25T02:56:57.204Z,0.00
2022-12-25T02:57:57.014Z,0.00
2022-12-25T02:58:56.873Z,0.00
2022-12-25T02:59:56.881Z,0.00
2022-12-25T03:00:57.594Z,0.00
2022-12-25T03:01:56.977Z,0.00
2022-12-25T03:02:56.868Z,0.00
2022-12-25T03:03:56.866Z,0.00
2022-12-25T03:04:56.821Z,0.00
2022-12-25T03:05:56.815Z,0.00
2022-12-25T03:06:56.799Z,0.00
2022-12-25T03:07:56.790Z,0.00
2022-12-25T03:08:56.770Z,0.00
2022-12-25T03:09:56.755Z,0.00
2022-12-25T03:10:56.730Z,0.00
2022-12-25T03:11:57.025Z,0.00
2022-12-25T03:12:56.716Z,0.00
2022-12-25T03:13:56.726Z,0.00
2022-12-25T03:14:56.753Z,0.00
2022-12-25T03:15:56.687Z,0.00
2022-12-25T03:16:56.795Z,0.00
2022-12-25T03:17:56.663Z,0.00
2022-12-25T03:18:56.655Z,0.00
2022-12-25T03:19:56.642Z,0.00
2022-12-25T03:20:56.623Z,0.00
2022-12-25T03:21:56.598Z,0.00
2022-12-25T03:22:56.586Z,0.00
2022-12-25T03:24:00.491Z,0.00
2022-12-25T03:24:57.336Z,0.00
2022-12-25T03:25:56.583Z,0.00
2022-12-25T03:26:56.623Z,0.00
2022-12-25T03:27:56.531Z,0.00
2022-12-25T03:28:57.014Z,0.00
2022-12-25T03:29:56.511Z,0.00
2022-12-25T03:30:56.605Z,0.00
2022-12-25T03:31:57.019Z,0.00
2022-12-25T03:32:56.464Z,0.00
2022-12-25T03:33:56.458Z,0.00
2022-12-25T03:34:56.436Z,0.00
2022-12-25T03:35:56.418Z,0.00
2022-12-25T03:36:56.453Z,0.00
2022-12-25T03:37:56.432Z,0.00
2022-12-25T03:38:56.392Z,0.00
2022-12-25T03:39:56.390Z,0.00
2022-12-25T03:40:56.372Z,0.00
2022-12-25T03:41:56.647Z,0.00
2022-12-25T03:42:56.454Z,0.00
2022-12-25T03:43:56.326Z,0.00
2022-12-25T03:44:56.326Z,0.00
2022-12-25T03:45:56.328Z,0.00
2022-12-25T03:46:56.287Z,0.00
2022-12-25T03:47:56.278Z,0.00
2022-12-25T03:48:56.278Z,0.00
2022-12-25T03:49:56.268Z,0.00
2022-12-25T03:50:56.252Z,0.00
2022-12-25T03:51:57.003Z,0.00
2022-12-25T03:52:56.235Z,0.00
2022-12-25T03:53:56.488Z,0.00
2022-12-25T03:54:56.238Z,0.00
2022-12-25T03:55:56.194Z,0.00
2022-12-25T03:56:56.484Z,0.00
2022-12-25T03:58:00.048Z,0.00
2022-12-25T03:58:57.950Z,0.00
2022-12-25T03:59:56.149Z,0.00
2022-12-25T04:00:56.161Z,0.00
2022-12-25T04:01:56.231Z,0.00
2022-12-25T04:02:56.514Z,0.00
2022-12-25T04:03:57.060Z,0.00
2022-12-25T04:04:56.089Z,0.00
2022-12-25T04:05:56.054Z,0.00
2022-12-25T04:06:56.484Z,0.00
2022-12-25T04:07:56.039Z,0.00
2022-12-25T04:08:56.010Z,0.00
2022-12-25T04:09:56.040Z,0.00
2022-12-25T04:10:56.008Z,0.00
2022-12-25T04:12:02.003Z,0.00
2022-12-25T04:12:57.274Z,0.00
2022-12-25T04:13:55.948Z,0.00
2022-12-25T04:14:55.949Z,0.00
2022-12-25T04:15:56.036Z,0.00
2022-12-25T04:16:55.912Z,0.00
2022-12-25T04:17:55.937Z,0.00
2022-12-25T04:18:55.888Z,0.00
2022-12-25T04:19:55.886Z,0.00
2022-12-25T04:20:56.365Z,0.00
2022-12-25T04:21:55.852Z,0.00
2022-12-25T04:22:55.828Z,0.00
2022-12-25T04:23:55.859Z,0.00
2022-12-25T04:24:55.820Z,0.00
2022-12-25T04:25:55.814Z,0.00
2022-12-25T04:26:55.778Z,0.00
2022-12-25T04:27:55.782Z,0.00
2022-12-25T04:28:55.763Z,0.00
2022-12-25T04:29:55.860Z,0.00
2022-12-25T04:30:55.769Z,0.00
2022-12-25T04:31:55.730Z,0.00
2022-12-25T04:32:56.403Z,0.00
2022-12-25T04:33:55.693Z,0.00
2022-12-25T04:34:55.961Z,0.00
2022-12-25T04:35:55.701Z,0.00
2022-12-25T04:36:55.653Z,0.00
2022-12-25T04:37:55.646Z,0.00
2022-12-25T04:38:55.636Z,0.00
2022-12-25T04:39:56.421Z,0.00
2022-12-25T04:40:55.619Z,0.00
2022-12-25T04:41:55.900Z,0.00
2022-12-25T04:42:55.585Z,0.00
2022-12-25T04:43:55.568Z,0.00
2022-12-25T04:44:55.560Z,0.00
2022-12-25T04:45:55.617Z,0.00
2022-12-25T04:46:55.899Z,0.00
2022-12-25T04:47:55.908Z,0.00
2022-12-25T04:48:55.515Z,0.00
2022-12-25T04:49:55.490Z,0.00
2022-12-25T04:50:55.758Z,0.00
2022-12-25T04:51:55.478Z,0.00
2022-12-25T04:52:56.167Z,0.00
2022-12-25T04:53:55.482Z,0.00
2022-12-25T04:54:55.558Z,0.00
2022-12-25T04:55:55.412Z,0.00
2022-12-25T04:56:55.399Z,0.00
2022-12-25T04:57:55.401Z,0.00
2022-12-25T04:58:55.651Z,0.00
2022-12-25T04:59:55.414Z,0.00
2022-12-25T05:00:55.372Z,0.00
2022-12-25T05:01:55.472Z,0.00
2022-12-25T05:02:55.752Z,0.00
2022-12-25T05:03:55.379Z,0.00
2022-12-25T05:04:55.291Z,0.00
2022-12-25T05:05:55.584Z,0.00
2022-12-25T05:06:55.283Z,0.00
2022-12-25T05:07:55.274Z,0.00
2022-12-25T05:08:55.245Z,0.00
2022-12-25T05:09:55.233Z,0.00
2022-12-25T05:10:55.224Z,0.00
2022-12-25T05:11:59.079Z,0.00
2022-12-25T05:12:55.184Z,0.00
2022-12-25T05:13:55.178Z,0.00
2022-12-25T05:14:55.167Z,0.00
2022-12-25T05:15:55.470Z,0.00
2022-12-25T05:16:55.168Z,0.00
2022-12-25T05:17:55.434Z,0.00
2022-12-25T05:18:55.116Z,0.00
2022-12-25T05:19:55.113Z,0.00
2022-12-25T05:20:55.087Z,0.00
2022-12-25T05:21:56.868Z,0.00
2022-12-25T05:22:55.066Z,0.00
2022-12-25T05:23:55.347Z,0.00
2022-12-25T05:24:55.043Z,0.00
2022-12-25T05:25:57.064Z,0.00
2022-12-25T05:26:55.054Z,0.00
2022-12-25T05:27:55.355Z,0.00
2022-12-25T05:28:55.033Z,0.00
2022-12-25T05:29:54.980Z,0.00
2022-12-25T05:30:55.031Z,0.00
2022-12-25T05:31:54.958Z,0.00
2022-12-25T05:32:54.952Z,0.00
2022-12-25T05:33:54.957Z,0.00
2022-12-25T05:34:55.030Z,0.00
2022-12-25T05:35:54.913Z,0.00
2022-12-25T05:36:54.895Z,0.00
2022-12-25T05:37:54.893Z,0.00
2022-12-25T05:38:54.863Z,0.00
2022-12-25T05:39:54.851Z,0.00
2022-12-25T05:40:54.857Z,0.00
2022-12-25T05:41:54.820Z,0.00
2022-12-25T05:42:54.819Z,0.00
2022-12-25T05:43:54.794Z,0.00
2022-12-25T05:44:54.776Z,0.00
2022-12-25T05:45:54.808Z,0.00
2022-12-25T05:46:54.965Z,0.00
2022-12-25T05:47:54.768Z,0.00
2022-12-25T05:48:55.515Z,0.00
2022-12-25T05:49:54.730Z,0.00
2022-12-25T05:50:56.505Z,0.00
2022-12-25T05:51:54.698Z,0.00
2022-12-25T05:52:54.778Z,0.00
2022-12-25T05:53:54.667Z,0.00
2022-12-25T05:54:54.934Z,0.00
2022-12-25T05:55:54.918Z,0.00
2022-12-25T05:56:54.619Z,0.00
2022-12-25T05:57:54.618Z,0.00
2022-12-25T05:58:54.977Z,0.00
2022-12-25T05:59:54.615Z,0.00
2022-12-25T06:00:54.571Z,0.00
2022-12-25T06:01:54.658Z,0.00
2022-12-25T06:02:54.955Z,0.00
2022-12-25T06:03:55.589Z,0.00
2022-12-25T06:04:54.642Z,0.00
2022-12-25T06:05:54.510Z,0.00
2022-12-25T06:06:54.547Z,0.00
2022-12-25T06:07:54.492Z,0.00
2022-12-25T06:08:54.470Z,0.00
2022-12-25T06:09:54.453Z,0.00
2022-12-25T06:10:55.315Z,0.00
2022-12-25T06:11:54.426Z,0.00
2022-12-25T06:12:54.697Z,0.00
2022-12-25T06:13:54.402Z,0.00
2022-12-25T06:14:54.409Z,0.00
2022-12-25T06:15:54.435Z,0.00
2022-12-25T06:16:54.469Z,0.00
2022-12-25T06:17:56.126Z,0.00
2022-12-25T06:18:54.384Z,0.00
2022-12-25T06:19:54.341Z,0.00
2022-12-25T06:20:54.373Z,0.00
2022-12-25T06:21:54.322Z,0.00
2022-12-25T06:22:54.347Z,0.00
2022-12-25T06:23:54.947Z,0.00
2022-12-25T06:24:54.960Z,0.00
2022-12-25T06:25:54.247Z,0.00
2022-12-25T06:26:54.245Z,0.00
2022-12-25T06:27:54.215Z,0.00
2022-12-25T06:28:54.332Z,0.00
2022-12-25T06:29:54.194Z,0.00
2022-12-25T06:30:54.200Z,0.00
2022-12-25T06:31:54.221Z,0.00
2022-12-25T06:32:54.181Z,0.00
2022-12-25T06:33:54.139Z,0.00
2022-12-25T06:34:54.160Z,0.00
2022-12-25T06:35:54.131Z,0.00
2022-12-25T06:36:54.175Z,0.00
2022-12-25T06:37:54.090Z,0.00
2022-12-25T06:38:54.085Z,0.00
2022-12-25T06:39:54.082Z,0.00
2022-12-25T06:40:54.227Z,0.00
2022-12-25T06:41:54.043Z,0.00
2022-12-25T06:42:54.031Z,0.00
2022-12-25T06:43:54.348Z,0.00
2022-12-25T06:44:54.018Z,0.00
2022-12-25T06:45:54.061Z,0.00
2022-12-25T06:46:54.036Z,0.00
2022-12-25T06:47:53.963Z,0.00
2022-12-25T06:48:54.008Z,0.00
2022-12-25T06:49:54.202Z,0.00
2022-12-25T06:50:53.948Z,0.00
2022-12-25T06:52:06.371Z,0.00
2022-12-25T06:52:53.924Z,1.00
2022-12-25T06:53:53.897Z,1.00
2022-12-25T06:54:53.878Z,0.00
2022-12-25T06:55:54.153Z,0.00
2022-12-25T06:56:53.864Z,0.00
2022-12-25T06:57:53.843Z,0.00
2022-12-25T06:58:53.875Z,0.00
2022-12-25T06:59:55.451Z,2.00
2022-12-25T07:00:53.821Z,2.00
2022-12-25T07:01:53.903Z,2.00
2022-12-25T07:02:53.877Z,0.00
2022-12-25T07:03:53.796Z,0.00
2022-12-25T07:04:53.816Z,0.00
2022-12-25T07:05:54.016Z,0.00
2022-12-25T07:06:53.752Z,4.00
2022-12-25T07:07:53.721Z,0.00
2022-12-25T07:08:53.713Z,2.00
2022-12-25T07:09:53.694Z,1.00
2022-12-25T07:10:53.694Z,5.00
2022-12-25T07:11:53.679Z,3.00
2022-12-25T07:12:53.653Z,9.00
2022-12-25T07:13:53.635Z,3.00
2022-12-25T07:14:53.648Z,11.00
2022-12-25T07:15:54.311Z,4.00
2022-12-25T07:16:54.627Z,14.00
2022-12-25T07:17:55.298Z,25.00
2022-12-25T07:18:53.581Z,17.00
2022-12-25T07:19:57.549Z,22.00
2022-12-25T07:20:54.555Z,30.00
2022-12-25T07:21:53.524Z,33.00
2022-12-25T07:22:53.554Z,46.00
2022-12-25T07:23:53.582Z,45.00
2022-12-25T07:24:53.493Z,52.00
2022-12-25T07:25:53.488Z,52.00
2022-12-25T07:26:53.511Z,61.00
2022-12-25T07:27:53.447Z,61.00
2022-12-25T07:28:53.488Z,60.00
2022-12-25T07:29:53.416Z,74.00
2022-12-25T07:30:54.114Z,58.00
2022-12-25T07:31:53.729Z,71.00
2022-12-25T07:32:53.948Z,78.00
2022-12-25T07:33:54.886Z,93.00
2022-12-25T07:34:53.492Z,108.00
2022-12-25T07:35:55.167Z,117.00
2022-12-25T07:36:53.345Z,129.00
2022-12-25T07:37:53.325Z,155.00
2022-12-25T07:38:53.308Z,169.00
2022-12-25T07:39:53.779Z,190.00
2022-12-25T07:40:54.180Z,226.00
2022-12-25T07:41:53.301Z,237.00
2022-12-25T07:42:53.269Z,270.00
2022-12-25T07:43:53.259Z,295.00
2022-12-25T07:44:53.242Z,317.00
2022-12-25T07:45:53.253Z,335.00
2022-12-25T07:46:53.249Z,354.00
2022-12-25T07:47:55.148Z,371.00
2022-12-25T07:48:53.197Z,401.00
2022-12-25T07:49:55.031Z,409.00
2022-12-25T07:50:53.170Z,409.00
2022-12-25T07:51:53.141Z,431.00
2022-12-25T07:52:53.173Z,453.00
2022-12-25T07:53:53.123Z,462.00
2022-12-25T07:54:53.105Z,475.00
2022-12-25T07:55:53.102Z,501.00
2022-12-25T07:56:53.094Z,506.00
2022-12-25T07:57:53.080Z,537.00
2022-12-25T07:58:53.131Z,547.00
2022-12-25T07:59:54.010Z,552.00
2022-12-25T08:00:53.133Z,573.00
2022-12-25T08:01:53.262Z,586.00
2022-12-25T08:02:53.477Z,594.00
2022-12-25T08:03:53.160Z,600.00
2022-12-25T08:04:53.035Z,606.00
2022-12-25T08:05:52.975Z,610.00
2022-12-25T08:06:52.959Z,628.00
2022-12-25T08:07:57.330Z,626.00
2022-12-25T08:08:57.972Z,648.00
2022-12-25T08:09:52.926Z,655.00
2022-12-25T08:10:52.942Z,672.00
2022-12-25T08:11:52.887Z,667.00
2022-12-25T08:12:52.880Z,681.00
2022-12-25T08:13:52.852Z,679.00
2022-12-25T08:14:52.886Z,683.00
2022-12-25T08:15:52.840Z,720.00
2022-12-25T08:16:52.969Z,766.00
2022-12-25T08:17:52.831Z,825.00
2022-12-25T08:18:52.803Z,901.00
2022-12-25T08:19:52.794Z,986.00
2022-12-25T08:20:52.780Z,1058.00
2022-12-25T08:21:52.793Z,1117.00
2022-12-25T08:22:52.861Z,1171.00
2022-12-25T08:23:52.744Z,1188.00
2022-12-25T08:24:52.735Z,1213.00
2022-12-25T08:25:52.703Z,1248.00
2022-12-25T08:26:52.994Z,1282.00
2022-12-25T08:27:56.653Z,1362.00
2022-12-25T08:28:52.721Z,1424.00
2022-12-25T08:29:52.667Z,1467.00
2022-12-25T08:30:52.663Z,1453.00
2022-12-25T08:31:52.644Z,1442.00
2022-12-25T08:32:52.893Z,1419.00
2022-12-25T08:33:52.643Z,1366.00
2022-12-25T08:34:52.634Z,1292.00
2022-12-25T08:35:52.608Z,1224.00
2022-12-25T08:36:52.595Z,1190.00
2022-12-25T08:37:52.571Z,1180.00
2022-12-25T08:38:56.987Z,1173.00
2022-12-25T08:39:53.585Z,1116.00
2022-12-25T08:40:52.531Z,1008.00
2022-12-25T08:41:52.517Z,908.00
2022-12-25T08:42:52.509Z,854.00
2022-12-25T08:43:56.015Z,840.00
2022-12-25T08:44:52.490Z,863.00
2022-12-25T08:45:52.517Z,938.00
2022-12-25T08:46:52.463Z,1024.00
2022-12-25T08:47:52.442Z,1122.00
2022-12-25T08:48:53.127Z,1174.00
2022-12-25T08:49:52.401Z,1189.00
2022-12-25T08:50:52.418Z,1160.00
2022-12-25T08:51:52.502Z,1073.00
2022-12-25T08:52:53.336Z,970.00
2022-12-25T08:53:52.692Z,919.00
2022-12-25T08:54:52.645Z,931.00
2022-12-25T08:55:52.746Z,972.00
2022-12-25T08:56:55.113Z,982.00
2022-12-25T08:57:53.594Z,943.00
2022-12-25T08:58:52.294Z,923.00
2022-12-25T08:59:52.286Z,903.00
2022-12-25T09:00:52.417Z,891.00
2022-12-25T09:01:52.371Z,906.00
2022-12-25T09:02:52.327Z,937.00
2022-12-25T09:03:52.992Z,975.00
2022-12-25T09:04:55.860Z,1028.00
2022-12-25T09:05:52.232Z,1080.00
2022-12-25T09:06:52.217Z,1140.00
2022-12-25T09:07:52.177Z,1180.00
2022-12-25T09:08:52.189Z,1223.00
2022-12-25T09:09:52.192Z,1270.00
2022-12-25T09:10:53.107Z,1314.00
2022-12-25T09:11:52.142Z,1379.00
2022-12-25T09:13:02.180Z,1424.00
2022-12-25T09:13:52.367Z,1444.00
2022-12-25T09:14:52.112Z,1460.00
2022-12-25T09:15:52.233Z,1460.00
2022-12-25T09:16:52.083Z,1460.00
2022-12-25T09:17:52.054Z,1461.00
2022-12-25T09:18:52.051Z,1469.00
2022-12-25T09:19:52.032Z,1498.00
2022-12-25T09:20:52.018Z,1500.00
2022-12-25T09:21:52.050Z,1477.00
2022-12-25T09:22:52.019Z,1464.00
2022-12-25T09:23:51.975Z,1458.00
2022-12-25T09:24:51.966Z,1469.00
2022-12-25T09:25:51.957Z,1466.00
2022-12-25T09:26:51.951Z,1494.00
2022-12-25T09:27:51.963Z,1553.00
2022-12-25T09:28:52.837Z,1591.00
2022-12-25T09:29:51.927Z,1620.00
2022-12-25T09:30:53.599Z,1630.00
2022-12-25T09:31:51.875Z,1622.00
2022-12-25T09:32:52.108Z,1596.00
2022-12-25T09:33:51.937Z,1580.00
2022-12-25T09:34:51.853Z,1574.00
2022-12-25T09:35:51.815Z,1576.00
2022-12-25T09:36:51.823Z,1563.00
2022-12-25T09:37:52.597Z,1568.00
2022-12-25T09:38:51.806Z,1590.00
2022-12-25T09:39:51.810Z,1608.00
2022-12-25T09:40:51.760Z,1617.00
2022-12-25T09:41:55.689Z,1628.00
2022-12-25T09:42:51.738Z,1641.00
2022-12-25T09:43:51.721Z,1659.00
2022-12-25T09:44:51.723Z,1683.00
2022-12-25T09:45:51.791Z,1695.00
2022-12-25T09:46:51.710Z,1696.00
2022-12-25T09:47:51.674Z,1676.00
2022-12-25T09:48:52.499Z,1660.00
2022-12-25T09:49:51.651Z,1632.00
2022-12-25T09:50:51.639Z,1631.00
2022-12-25T09:51:51.645Z,1618.00
2022-12-25T09:52:51.605Z,1626.00
2022-12-25T09:53:51.597Z,1635.00
2022-12-25T09:54:51.588Z,1644.00
2022-12-25T09:55:51.566Z,1654.00
2022-12-25T09:56:51.554Z,1653.00
2022-12-25T09:57:51.934Z,1636.00
2022-12-25T09:58:51.531Z,1624.00
2022-12-25T09:59:52.344Z,1620.00
2022-12-25T10:00:51.503Z,1632.00
2022-12-25T10:01:51.624Z,1657.00
2022-12-25T10:02:52.480Z,1678.00
2022-12-25T10:03:51.605Z,1718.00
2022-12-25T10:04:51.460Z,1785.00
2022-12-25T10:05:51.436Z,1844.00
2022-12-25T10:06:51.438Z,1911.00
2022-12-25T10:07:51.407Z,1920.00
2022-12-25T10:08:51.401Z,1907.00
2022-12-25T10:09:51.416Z,1854.00
2022-12-25T10:10:52.351Z,1758.00
2022-12-25T10:11:51.357Z,1644.00
2022-12-25T10:12:51.616Z,1521.00
2022-12-25T10:13:51.335Z,1418.00
2022-12-25T10:14:51.330Z,1354.00
2022-12-25T10:15:51.425Z,1311.00
2022-12-25T10:16:51.311Z,1252.00
2022-12-25T10:17:51.304Z,1175.00
2022-12-25T10:18:51.289Z,1102.00
2022-12-25T10:19:51.249Z,1053.00
2022-12-25T10:20:51.244Z,1070.00
2022-12-25T10:21:51.287Z,1143.00
2022-12-25T10:22:51.252Z,1239.00
2022-12-25T10:23:51.241Z,1360.00
2022-12-25T10:24:51.219Z,1465.00
2022-12-25T10:25:51.206Z,1525.00
2022-12-25T10:26:51.171Z,1520.00
2022-12-25T10:27:51.180Z,1559.00
2022-12-25T10:28:51.153Z,1658.00
2022-12-25T10:29:51.179Z,1690.00
2022-12-25T10:30:51.455Z,1651.00
2022-12-25T10:31:51.116Z,1690.00
2022-12-25T10:32:51.383Z,1802.00
2022-12-25T10:33:51.139Z,1935.00
2022-12-25T10:34:51.081Z,2106.00
2022-12-25T10:35:51.072Z,2297.00
2022-12-25T10:36:51.873Z,2387.00
2022-12-25T10:37:51.035Z,2361.00
2022-12-25T10:38:51.030Z,2288.00
2022-12-25T10:39:51.127Z,2188.00
2022-12-25T10:40:51.076Z,2056.00
2022-12-25T10:41:50.987Z,1940.00
2022-12-25T10:42:51.258Z,1826.00
2022-12-25T10:43:51.784Z,1792.00
2022-12-25T10:44:50.936Z,1852.00
2022-12-25T10:45:51.749Z,1881.00
2022-12-25T10:46:51.000Z,1842.00
2022-12-25T10:47:59.524Z,1724.00
2022-12-25T10:48:51.905Z,1582.00
2022-12-25T10:49:50.917Z,1470.00
2022-12-25T10:50:50.876Z,1405.00
2022-12-25T10:51:50.916Z,1436.00
2022-12-25T10:52:51.089Z,1520.00
2022-12-25T10:53:50.839Z,1602.00
2022-12-25T10:54:50.827Z,1656.00
2022-12-25T10:55:50.832Z,1690.00
2022-12-25T10:56:50.801Z,1675.00
2022-12-25T10:57:50.950Z,1646.00
2022-12-25T10:58:50.783Z,1631.00
2022-12-25T10:59:50.773Z,1581.00
2022-12-25T11:00:50.764Z,1467.00
2022-12-25T11:01:55.049Z,1364.00
2022-12-25T11:02:50.839Z,1284.00
2022-12-25T11:03:51.608Z,1265.00
2022-12-25T11:04:50.712Z,1263.00
2022-12-25T11:05:50.693Z,1291.00
2022-12-25T11:06:50.693Z,1314.00
2022-12-25T11:07:50.674Z,1327.00
2022-12-25T11:08:50.643Z,1325.00
2022-12-25T11:09:50.662Z,1302.00
2022-12-25T11:10:50.645Z,1293.00
2022-12-25T11:11:50.613Z,1277.00
2022-12-25T11:12:50.607Z,1258.00
2022-12-25T11:13:50.607Z,1232.00
2022-12-25T11:14:50.582Z,1213.00
2022-12-25T11:15:50.753Z,1194.00
2022-12-25T11:16:50.541Z,1161.00
2022-12-25T11:17:50.651Z,1136.00
2022-12-25T11:18:50.540Z,1137.00
2022-12-25T11:19:50.506Z,1108.00
2022-12-25T11:20:50.501Z,1082.00
2022-12-25T11:21:50.517Z,1035.00
2022-12-25T11:22:50.476Z,987.00
2022-12-25T11:23:50.466Z,958.00
2022-12-25T11:24:50.457Z,952.00
2022-12-25T11:25:50.455Z,972.00
2022-12-25T11:26:50.687Z,989.00
2022-12-25T11:27:53.586Z,984.00
2022-12-25T11:28:50.405Z,946.00
2022-12-25T11:29:50.644Z,921.00
2022-12-25T11:30:50.378Z,911.00
2022-12-25T11:31:50.425Z,902.00
2022-12-25T11:32:50.482Z,933.00
2022-12-25T11:33:58.101Z,947.00
2022-12-25T11:34:50.559Z,948.00
2022-12-25T11:35:50.302Z,929.00
2022-12-25T11:36:50.294Z,908.00
2022-12-25T11:37:50.281Z,885.00
2022-12-25T11:38:50.623Z,867.00
2022-12-25T11:39:50.736Z,836.00
2022-12-25T11:40:50.239Z,811.00
2022-12-25T11:41:50.314Z,801.00
2022-12-25T11:42:50.625Z,825.00
2022-12-25T11:43:50.203Z,891.00
2022-12-25T11:44:50.220Z,964.00
2022-12-25T11:45:50.184Z,1054.00
2022-12-25T11:46:50.277Z,1128.00
2022-12-25T11:47:50.173Z,1222.00
2022-12-25T11:48:50.135Z,1319.00
2022-12-25T11:49:51.507Z,1395.00
2022-12-25T11:50:50.142Z,1462.00
2022-12-25T11:51:50.113Z,1523.00
2022-12-25T11:52:50.216Z,1556.00
2022-12-25T11:53:50.090Z,1572.00
2022-12-25T11:54:50.280Z,1564.00
2022-12-25T11:55:50.068Z,1572.00
2022-12-25T11:56:50.093Z,1570.00
2022-12-25T11:57:50.036Z,1512.00
2022-12-25T11:58:50.012Z,1453.00
2022-12-25T11:59:50.010Z,1423.00
2022-12-25T12:00:49.989Z,1429.00
2022-12-25T12:01:50.103Z,1469.00
2022-12-25T12:02:50.102Z,1537.00
2022-12-25T12:03:50.053Z,1574.00
2022-12-25T12:04:49.940Z,1513.00
2022-12-25T12:05:53.898Z,1388.00
2022-12-25T12:06:50.203Z,1273.00
2022-12-25T12:07:49.914Z,1246.00
2022-12-25T12:08:49.932Z,1283.00
2022-12-25T12:09:49.892Z,1288.00
2022-12-25T12:10:49.856Z,1320.00
2022-12-25T12:11:49.854Z,1355.00
2022-12-25T12:12:49.838Z,1428.00
2022-12-25T12:13:49.835Z,1511.00
2022-12-25T12:14:49.923Z,1578.00
2022-12-25T12:15:49.809Z,1659.00
2022-12-25T12:16:49.853Z,1737.00
2022-12-25T12:17:49.780Z,1714.00
2022-12-25T12:18:50.780Z,1693.00
2022-12-25T12:19:49.760Z,1640.00
2022-12-25T12:20:49.843Z,1641.00
2022-12-25T12:21:49.745Z,1694.00
2022-12-25T12:22:51.531Z,1766.00
2022-12-25T12:23:49.742Z,1834.00
2022-12-25T12:24:49.685Z,1869.00
2022-12-25T12:25:49.676Z,1807.00
2022-12-25T12:26:49.698Z,1652.00
2022-12-25T12:27:49.667Z,1520.00
2022-12-25T12:28:49.638Z,1474.00
2022-12-25T12:29:49.917Z,1552.00
2022-12-25T12:30:49.617Z,1645.00
2022-12-25T12:31:49.688Z,1709.00
2022-12-25T12:32:49.628Z,1688.00
2022-12-25T12:33:49.581Z,1538.00
2022-12-25T12:34:49.576Z,1393.00
2022-12-25T12:35:49.593Z,1276.00
2022-12-25T12:36:49.577Z,1217.00
2022-12-25T12:37:49.519Z,1205.00
2022-12-25T12:38:49.572Z,1184.00
2022-12-25T12:39:49.511Z,1253.00
2022-12-25T12:40:49.554Z,1338.00
2022-12-25T12:41:49.513Z,1385.00
2022-12-25T12:42:50.239Z,1410.00
2022-12-25T12:43:49.452Z,1388.00
2022-12-25T12:44:49.720Z,1366.00
2022-12-25T12:45:49.486Z,1352.00
2022-12-25T12:46:49.690Z,1337.00
2022-12-25T12:47:49.404Z,1411.00
2022-12-25T12:48:49.409Z,1491.00
2022-12-25T12:49:49.646Z,1504.00